Little Swan, Minnesota
Current Conditions -  °F | °C
As of 3:33 AM on Saturday 20 Dec 2014 (Local Time) from KHIB Reporting Station
Light Snow Light Snow  
Wind Chill: 18°   Ceiling: 400
Heat Index: 26°   Visibility: 1.7mi
Dew Point: 23°   Wind: 7mph
Humidity: 88%   Direction: 160°SSE
Pressure: 30.08"   Gusts: NA
Location:  47.4158°N, 93.0053°W
Report Text: KHIB 200933Z AUTO 16006KT 1 3/4SM -SN BR OVC004 M03/M05 A3008 RMK AO2 P0000 T10331050
Loading
Personal Weather Stations






























Interactive Weather Map New forecast layout! Learn more

10-Day Weather Forecast

Advertisements
Track Severe Weather on mobile